^^
Station Historical Data
Daily Summary for March 08, 2018 Units:  English    Metric   Both
« Previous Day
Next Day »
Daily Weekly Monthly Yearly Custom
  High: Low: Average:
Temperature: TemperatureF °F 48.0 °F 55 °F
Dew Point: DewpointF °F 24.5 °F 33.3 °F
Humidity: Humidity% 23% 46%
Wind Speed: WindSpeedMPHmph 0.0mph 0mph
Wind Gust: WindSpeedGustMPHmph - -
Wind- - North
Pressure: PressureIn in 30.01 in -
Precipitation: 0.00 in    
Historical Graphs
 
 
Tabular Data for March 08, 2018
Time Temperature Dew Point Pressure Wind Wind Speed Wind Gust Humidity Rainfall Rate (Hourly) solar Conditions
TemperatureF °F DewpointF °F PressureIn in Calm     Humidity% HourlyPrecipIn in SolarRadiationWatts/m^2 W/m2 Conditions
00:01 57.0 °F 41.9 °F 30.02 in Calm     57% 0.00 in 0.0 W/m2 RA
00:06 57.0 °F 41.9 °F 30.02 in Calm     57% 0.00 in 0.0 W/m2 RA
00:11 57.0 °F 41.9 °F 30.02 in Calm     57% 0.00 in 0.0 W/m2 CLR
00:16 57.0 °F 41.9 °F 30.02 in Calm     57% 0.00 in 0.0 W/m2 CLR
00:21 57.0 °F 41.9 °F 30.02 in Calm     57% 0.00 in 0.0 W/m2 CLR
00:26 57.0 °F 41.9 °F 30.02 in Calm     57% 0.00 in 0.0 W/m2 CLR
00:31 57.0 °F 41.9 °F 30.02 in Calm     57% 0.00 in 0.0 W/m2 CLR
00:36 57.0 °F 41.9 °F 30.02 in Calm     57% 0.00 in 0.0 W/m2 CLR
00:41 57.0 °F 41.9 °F 30.02 in Calm     57% 0.00 in 0.0 W/m2 CLR
00:46 57.0 °F 41.9 °F 30.02 in Calm     57% 0.00 in 0.0 W/m2 CLR
00:51 57.0 °F 41.9 °F 30.02 in Calm     57% 0.00 in 0.0 W/m2 CLR
00:56 57.0 °F 41.9 °F 30.02 in Calm     57% 0.00 in 0.0 W/m2 CLR
01:01 55.9 °F 42.7 °F 30.03 in Calm     61% 0.00 in 0.0 W/m2 CLR
01:06 55.9 °F 42.7 °F 30.03 in Calm     61% 0.00 in 0.0 W/m2 CLR
01:11 55.9 °F 42.7 °F 30.03 in Calm     61% 0.00 in 0.0 W/m2 CLR
01:16 55.9 °F 42.7 °F 30.03 in Calm     61% 0.00 in 0.0 W/m2 CLR
01:21 55.9 °F 42.7 °F 30.03 in Calm     61% 0.00 in 0.0 W/m2 CLR
01:26 55.9 °F 42.7 °F 30.03 in Calm     61% 0.00 in 0.0 W/m2 CLR
01:31 55.9 °F 42.7 °F 30.03 in Calm     61% 0.00 in 0.0 W/m2 CLR
01:36 55.9 °F 42.7 °F 30.03 in Calm     61% 0.00 in 0.0 W/m2 CLR
01:41 55.9 °F 42.7 °F 30.03 in Calm     61% 0.00 in 0.0 W/m2 CLR
01:46 55.9 °F 42.7 °F 30.03 in Calm     61% 0.00 in 0.0 W/m2 CLR
01:51 55.9 °F 42.7 °F 30.03 in Calm     61% 0.00 in 0.0 W/m2 CLR
01:56 55.9 °F 42.7 °F 30.03 in Calm     61% 0.00 in 0.0 W/m2 CLR
02:01 54.0 °F 42.9 °F 30.02 in Calm     66% 0.00 in 0.0 W/m2 CLR
02:06 54.0 °F 42.9 °F 30.02 in Calm     66% 0.00 in 0.0 W/m2 CLR
02:11 54.0 °F 42.9 °F 30.02 in Calm     66% 0.00 in 0.0 W/m2 CLR
02:16 54.0 °F 42.9 °F 30.02 in Calm     66% 0.00 in 0.0 W/m2 CLR
02:21 54.0 °F 42.9 °F 30.02 in Calm     66% 0.00 in 0.0 W/m2 CLR
02:26 54.0 °F 42.9 °F 30.02 in Calm     66% 0.00 in 0.0 W/m2 CLR
02:31 54.0 °F 42.9 °F 30.02 in Calm     66% 0.00 in 0.0 W/m2 CLR
02:36 54.0 °F 42.9 °F 30.02 in Calm     66% 0.00 in 0.0 W/m2 CLR
02:41 54.0 °F 42.9 °F 30.02 in Calm     66% 0.00 in 0.0 W/m2 CLR
02:46 54.0 °F 42.9 °F 30.02 in Calm     66% 0.00 in 0.0 W/m2 CLR
02:51 54.0 °F 42.9 °F 30.02 in Calm     66% 0.00 in 0.0 W/m2 CLR
02:56 54.0 °F 42.9 °F 30.02 in Calm     66% 0.00 in 0.0 W/m2 CLR
03:01 52.0 °F 42.9 °F 30.01 in Calm     71% 0.00 in 0.0 W/m2 CLR
03:06 52.0 °F 42.9 °F 30.01 in Calm     71% 0.00 in 0.0 W/m2 CLR
03:11 52.0 °F 42.9 °F 30.01 in Calm     71% 0.00 in 0.0 W/m2 CLR
03:16 52.0 °F 42.9 °F 30.01 in Calm     71% 0.00 in 0.0 W/m2 CLR
03:21 52.0 °F 42.9 °F 30.01 in Calm     71% 0.00 in 0.0 W/m2 CLR
03:26 52.0 °F 42.9 °F 30.01 in Calm     71% 0.00 in 0.0 W/m2 CLR
03:31 52.0 °F 42.9 °F 30.01 in Calm     71% 0.00 in 0.0 W/m2 CLR
03:36 52.0 °F 42.9 °F 30.01 in Calm     71% 0.00 in 0.0 W/m2 CLR
03:41 52.0 °F 42.9 °F 30.01 in Calm     71% 0.00 in 0.0 W/m2 CLR
03:46 52.0 °F 42.9 °F 30.01 in Calm     71% 0.00 in 0.0 W/m2 CLR
03:51 52.0 °F 42.9 °F 30.01 in Calm     71% 0.00 in 0.0 W/m2 CLR
03:56 52.0 °F 42.9 °F 30.01 in Calm     71% 0.00 in 0.0 W/m2 CLR
04:01 52.0 °F 38.9 °F 30.01 in Calm     61% 0.00 in 0.0 W/m2 CLR
04:06 52.0 °F 38.9 °F 30.01 in Calm     61% 0.00 in 0.0 W/m2 CLR
04:11 52.0 °F 38.9 °F 30.01 in Calm     61% 0.00 in 0.0 W/m2 CLR
04:16 52.0 °F 38.9 °F 30.01 in Calm     61% 0.00 in 0.0 W/m2 CLR
04:21 52.0 °F 38.9 °F 30.01 in Calm     61% 0.00 in 0.0 W/m2 CLR
04:26 52.0 °F 38.9 °F 30.01 in Calm     61% 0.00 in 0.0 W/m2 CLR
04:31 52.0 °F 38.9 °F 30.01 in Calm     61% 0.00 in 0.0 W/m2 CLR
04:36 52.0 °F 38.9 °F 30.01 in Calm     61% 0.00 in 0.0 W/m2 CLR
04:41 52.0 °F 38.9 °F 30.01 in Calm     61% 0.00 in 0.0 W/m2 CLR
04:46 52.0 °F 38.9 °F 30.01 in Calm     61% 0.00 in 0.0 W/m2 CLR
04:51 52.0 °F 38.9 °F 30.01 in Calm     61% 0.00 in 0.0 W/m2 CLR
04:57 52.0 °F 38.9 °F 30.01 in Calm     61% 0.00 in 0.0 W/m2 CLR
05:02 50.0 °F 35.8 °F 30.02 in Calm     58% 0.00 in 0.0 W/m2 CLR
05:07 50.0 °F 35.8 °F 30.02 in Calm     58% 0.00 in 0.0 W/m2 CLR
05:12 50.0 °F 35.8 °F 30.02 in Calm     58% 0.00 in 0.0 W/m2 CLR
05:17 50.0 °F 35.8 °F 30.02 in Calm     58% 0.00 in 0.0 W/m2 CLR
05:22 50.0 °F 35.8 °F 30.02 in Calm     58% 0.00 in 0.0 W/m2 CLR
05:27 50.0 °F 35.8 °F 30.02 in Calm     58% 0.00 in 0.0 W/m2 CLR
05:32 50.0 °F 35.8 °F 30.02 in Calm     58% 0.00 in 0.0 W/m2 CLR
05:37 50.0 °F 35.8 °F 30.02 in Calm     58% 0.00 in 0.0 W/m2 CLR
05:42 50.0 °F 35.8 °F 30.02 in Calm     58% 0.00 in 0.0 W/m2 CLR
05:47 50.0 °F 35.8 °F 30.02 in Calm     58% 0.00 in 0.0 W/m2 CLR
05:52 50.0 °F 35.8 °F 30.02 in Calm     58% 0.00 in 0.0 W/m2 CLR
05:57 50.0 °F 35.8 °F 30.02 in Calm     58% 0.00 in 0.0 W/m2 CLR
06:02 50.0 °F 33.5 °F 30.05 in Calm     53% 0.00 in 0.0 W/m2 CLR
06:07 50.0 °F 33.5 °F 30.05 in Calm     53% 0.00 in 0.0 W/m2 CLR
06:12 50.0 °F 33.5 °F 30.05 in Calm     53% 0.00 in 0.0 W/m2 CLR
06:17 50.0 °F 33.5 °F 30.05 in Calm     53% 0.00 in 0.0 W/m2 CLR
06:22 50.0 °F 33.5 °F 30.05 in Calm     53% 0.00 in 0.0 W/m2 CLR
06:27 50.0 °F 33.5 °F 30.05 in Calm     53% 0.00 in 0.0 W/m2 CLR
06:32 50.0 °F 33.5 °F 30.05 in Calm     53% 0.00 in 0.0 W/m2 CLR
06:37 50.0 °F 33.5 °F 30.05 in Calm     53% 0.00 in 0.0 W/m2 CLR
06:42 50.0 °F 33.5 °F 30.05 in Calm     53% 0.00 in 0.0 W/m2 CLR
06:47 50.0 °F 33.5 °F 30.05 in Calm     53% 0.00 in 0.0 W/m2 CLR
06:52 50.0 °F 33.5 °F 30.05 in Calm     53% 0.00 in 0.0 W/m2 CLR
06:57 50.0 °F 33.5 °F 30.05 in Calm     53% 0.00 in 0.0 W/m2 CLR
07:02 48.0 °F 32.6 °F 30.07 in Calm     55% 0.00 in 0.0 W/m2 CLR
07:07 48.0 °F 32.6 °F 30.07 in Calm     55% 0.00 in 0.0 W/m2 CLR
07:12 48.0 °F 32.6 °F 30.07 in Calm     55% 0.00 in 0.0 W/m2 CLR
07:17 48.0 °F 32.6 °F 30.07 in Calm     55% 0.00 in 0.0 W/m2 CLR
07:22 48.0 °F 32.6 °F 30.07 in Calm     55% 0.00 in 0.0 W/m2 CLR
07:27 48.0 °F 32.6 °F 30.07 in Calm     55% 0.00 in 0.0 W/m2 CLR
07:32 48.0 °F 32.6 °F 30.07 in Calm     55% 0.00 in 0.0 W/m2 CLR
07:37 48.0 °F 32.6 °F 30.07 in Calm     55% 0.00 in 0.0 W/m2 CLR
07:42 48.0 °F 32.6 °F 30.07 in Calm     55% 0.00 in 0.0 W/m2 CLR
07:47 48.0 °F 32.6 °F 30.07 in Calm     55% 0.00 in 0.0 W/m2 CLR
07:52 48.0 °F 32.6 °F 30.07 in Calm     55% 0.00 in 0.0 W/m2 CLR
07:57 48.0 °F 32.6 °F 30.07 in Calm     55% 0.00 in 0.0 W/m2 CLR
08:02 51.1 °F 31.5 °F 30.10 in Calm     47% 0.00 in 0.0 W/m2 CLR
08:07 51.1 °F 31.5 °F 30.10 in Calm     47% 0.00 in 0.0 W/m2 CLR
08:12 51.1 °F 31.5 °F 30.10 in Calm     47% 0.00 in 0.0 W/m2 CLR
08:17 51.1 °F 31.5 °F 30.10 in Calm     47% 0.00 in 0.0 W/m2 CLR
08:22 51.1 °F 31.5 °F 30.10 in Calm     47% 0.00 in 0.0 W/m2 CLR
08:27 51.1 °F 31.5 °F 30.10 in Calm     47% 0.00 in 0.0 W/m2 CLR
08:32 51.1 °F 31.5 °F 30.10 in Calm     47% 0.00 in 0.0 W/m2 CLR
08:37 51.1 °F 31.5 °F 30.10 in Calm     47% 0.00 in 0.0 W/m2 CLR
08:42 51.1 °F 31.5 °F 30.10 in Calm     47% 0.00 in 0.0 W/m2 CLR
08:47 51.1 °F 31.5 °F 30.10 in Calm     47% 0.00 in 0.0 W/m2 CLR
08:52 51.1 °F 31.5 °F 30.10 in Calm     47% 0.00 in 0.0 W/m2 CLR
08:57 51.1 °F 31.5 °F 30.10 in Calm     47% 0.00 in 0.0 W/m2 CLR
09:02 54.0 °F 29.5 °F 30.11 in Calm     39% 0.00 in 0.0 W/m2 CLR
09:07 54.0 °F 29.5 °F 30.11 in Calm     39% 0.00 in 0.0 W/m2 CLR
09:12 54.0 °F 29.5 °F 30.11 in Calm     39% 0.00 in 0.0 W/m2 CLR
09:17 54.0 °F 29.5 °F 30.11 in Calm     39% 0.00 in 0.0 W/m2 CLR
09:22 54.0 °F 29.5 °F 30.11 in Calm     39% 0.00 in 0.0 W/m2 CLR
09:27 54.0 °F 29.5 °F 30.11 in Calm     39% 0.00 in 0.0 W/m2 CLR
09:32 54.0 °F 29.5 °F 30.11 in Calm     39% 0.00 in 0.0 W/m2 CLR
09:37 54.0 °F 29.5 °F 30.11 in Calm     39% 0.00 in 0.0 W/m2 CLR
09:42 54.0 °F 29.5 °F 30.11 in Calm     39% 0.00 in 0.0 W/m2 CLR
09:47 54.0 °F 29.5 °F 30.11 in Calm     39% 0.00 in 0.0 W/m2 CLR
09:52 54.0 °F 29.5 °F 30.11 in Calm     39% 0.00 in 0.0 W/m2 CLR
09:57 54.0 °F 29.5 °F 30.11 in Calm     39% 0.00 in 0.0 W/m2 CLR
10:02 55.0 °F 29.9 °F 30.12 in Calm     38% 0.00 in 0.0 W/m2 CLR
10:07 55.0 °F 29.9 °F 30.12 in Calm     38% 0.00 in 0.0 W/m2 CLR
10:12 55.0 °F 29.9 °F 30.12 in Calm     38% 0.00 in 0.0 W/m2 CLR
10:17 55.0 °F 29.9 °F 30.12 in Calm     38% 0.00 in 0.0 W/m2 CLR
10:22 55.0 °F 29.9 °F 30.12 in Calm     38% 0.00 in 0.0 W/m2 CLR
10:27 55.0 °F 29.9 °F 30.12 in Calm     38% 0.00 in 0.0 W/m2 CLR
10:32 55.0 °F 29.9 °F 30.12 in Calm     38% 0.00 in 0.0 W/m2 CLR
10:37 55.0 °F 29.9 °F 30.12 in Calm     38% 0.00 in 0.0 W/m2 CLR
10:42 55.0 °F 29.9 °F 30.12 in Calm     38% 0.00 in 0.0 W/m2 CLR
10:47 55.0 °F 29.9 °F 30.12 in Calm     38% 0.00 in 0.0 W/m2 CLR
10:52 55.0 °F 29.9 °F 30.12 in Calm     38% 0.00 in 0.0 W/m2 CLR
10:57 55.0 °F 29.9 °F 30.12 in Calm     38% 0.00 in 0.0 W/m2 CLR
11:02 57.0 °F 29.6 °F 30.11 in Calm     35% 0.00 in 0.0 W/m2 CLR
11:07 57.0 °F 29.6 °F 30.11 in Calm     35% 0.00 in 0.0 W/m2 CLR
11:12 57.0 °F 29.6 °F 30.11 in Calm     35% 0.00 in 0.0 W/m2 CLR
11:17 57.0 °F 29.6 °F 30.11 in Calm     35% 0.00 in 0.0 W/m2 CLR
11:22 57.0 °F 29.6 °F 30.11 in Calm     35% 0.00 in 0.0 W/m2 CLR
11:27 57.0 °F 29.6 °F 30.11 in Calm     35% 0.00 in 0.0 W/m2 CLR
11:32 57.0 °F 29.6 °F 30.11 in Calm     35% 0.00 in 0.0 W/m2 CLR
11:37 57.0 °F 29.6 °F 30.11 in Calm     35% 0.00 in 0.0 W/m2 CLR
11:42 57.0 °F 29.6 °F 30.11 in Calm     35% 0.00 in 0.0 W/m2 CLR
11:47 57.0 °F 29.6 °F 30.11 in Calm     35% 0.00 in 0.0 W/m2 CLR
11:52 57.0 °F 29.6 °F 30.11 in Calm     35% 0.00 in 0.0 W/m2 CLR
11:57 57.0 °F 29.6 °F 30.11 in Calm     35% 0.00 in 0.0 W/m2 CLR
12:02 59.0 °F 29.9 °F 30.10 in Calm     33% 0.00 in 0.0 W/m2 CLR
12:07 59.0 °F 29.9 °F 30.10 in Calm     33% 0.00 in 0.0 W/m2 CLR
12:12 59.0 °F 29.9 °F 30.10 in Calm     33% 0.00 in 0.0 W/m2 CLR
12:17 59.0 °F 29.9 °F 30.10 in Calm     33% 0.00 in 0.0 W/m2 CLR
12:22 59.0 °F 29.9 °F 30.10 in Calm     33% 0.00 in 0.0 W/m2 CLR
12:27 59.0 °F 29.9 °F 30.10 in Calm     33% 0.00 in 0.0 W/m2 CLR
12:32 59.0 °F 29.9 °F 30.10 in Calm     33% 0.00 in 0.0 W/m2 CLR
12:37 59.0 °F 29.9 °F 30.10 in Calm     33% 0.00 in 0.0 W/m2 CLR
12:42 59.0 °F 29.9 °F 30.10 in Calm     33% 0.00 in 0.0 W/m2 CLR
12:47 59.0 °F 29.9 °F 30.10 in Calm     33% 0.00 in 0.0 W/m2 CLR
12:52 59.0 °F 29.9 °F 30.10 in Calm     33% 0.00 in 0.0 W/m2 CLR
12:57 59.0 °F 29.9 °F 30.10 in Calm     33% 0.00 in 0.0 W/m2 CLR
13:02 60.1 °F 29.3 °F 30.08 in Calm     31% 0.00 in 0.0 W/m2 CLR
13:07 60.1 °F 29.3 °F 30.08 in Calm     31% 0.00 in 0.0 W/m2 CLR
13:12 60.1 °F 29.3 °F 30.08 in Calm     31% 0.00 in 0.0 W/m2 CLR
13:17 60.1 °F 29.3 °F 30.08 in Calm     31% 0.00 in 0.0 W/m2 CLR
13:22 60.1 °F 29.3 °F 30.08 in Calm     31% 0.00 in 0.0 W/m2 CLR
13:27 60.1 °F 29.3 °F 30.08 in Calm     31% 0.00 in 0.0 W/m2 CLR
13:32 60.1 °F 29.3 °F 30.08 in Calm     31% 0.00 in 0.0 W/m2 CLR
13:37 60.1 °F 29.3 °F 30.08 in Calm     31% 0.00 in 0.0 W/m2 CLR
13:42 60.1 °F 29.3 °F 30.08 in Calm     31% 0.00 in 0.0 W/m2 CLR
13:47 60.1 °F 29.3 °F 30.08 in Calm     31% 0.00 in 0.0 W/m2 CLR
13:52 60.1 °F 29.3 °F 30.08 in Calm     31% 0.00 in 0.0 W/m2 CLR
13:57 60.1 °F 29.3 °F 30.08 in Calm     31% 0.00 in 0.0 W/m2 CLR
14:02 61.0 °F 27.6 °F 30.05 in Calm     28% 0.00 in 0.0 W/m2 CLR
14:07 61.0 °F 27.6 °F 30.05 in Calm     28% 0.00 in 0.0 W/m2 CLR
14:12 61.0 °F 27.6 °F 30.05 in Calm     28% 0.00 in 0.0 W/m2 CLR
14:17 61.0 °F 27.6 °F 30.05 in Calm     28% 0.00 in 0.0 W/m2 CLR
14:22 61.0 °F 27.6 °F 30.05 in Calm     28% 0.00 in 0.0 W/m2 CLR
14:27 61.0 °F 27.6 °F 30.05 in Calm     28% 0.00 in 0.0 W/m2 CLR
14:32 61.0 °F 27.6 °F 30.05 in Calm     28% 0.00 in 0.0 W/m2 CLR
14:37 61.0 °F 27.6 °F 30.05 in Calm     28% 0.00 in 0.0 W/m2 CLR
14:42 61.0 °F 27.6 °F 30.05 in Calm     28% 0.00 in 0.0 W/m2 CLR
14:47 61.0 °F 27.6 °F 30.05 in Calm     28% 0.00 in 0.0 W/m2 CLR
14:52 61.0 °F 27.6 °F 30.05 in Calm     28% 0.00 in 0.0 W/m2 CLR
14:57 61.0 °F 27.6 °F 30.05 in Calm     28% 0.00 in 0.0 W/m2 CLR
15:02 63.0 °F 25.6 °F 30.02 in Calm     24% 0.00 in 0.0 W/m2 CLR
15:07 63.0 °F 25.6 °F 30.02 in Calm     24% 0.00 in 0.0 W/m2 CLR
15:12 63.0 °F 25.6 °F 30.02 in Calm     24% 0.00 in 0.0 W/m2 CLR
15:17 63.0 °F 25.6 °F 30.02 in Calm     24% 0.00 in 0.0 W/m2 CLR
15:22 63.0 °F 25.6 °F 30.02 in Calm     24% 0.00 in 0.0 W/m2 CLR
15:27 63.0 °F 25.6 °F 30.02 in Calm     24% 0.00 in 0.0 W/m2 CLR
15:32 63.0 °F 25.6 °F 30.02 in Calm     24% 0.00 in 0.0 W/m2 CLR
15:37 63.0 °F 25.6 °F 30.02 in Calm     24% 0.00 in 0.0 W/m2 CLR
15:42 63.0 °F 25.6 °F 30.02 in Calm     24% 0.00 in 0.0 W/m2 CLR
15:47 63.0 °F 25.6 °F 30.02 in Calm     24% 0.00 in 0.0 W/m2 CLR
15:52 63.0 °F 25.6 °F 30.02 in Calm     24% 0.00 in 0.0 W/m2 CLR
15:57 63.0 °F 25.6 °F 30.02 in Calm     24% 0.00 in 0.0 W/m2 CLR
16:02 63.0 °F 24.5 °F 30.01 in Calm     23% 0.00 in 0.0 W/m2 CLR
16:07 63.0 °F 24.5 °F 30.01 in Calm     23% 0.00 in 0.0 W/m2 CLR
16:12 63.0 °F 24.5 °F 30.01 in Calm     23% 0.00 in 0.0 W/m2 CLR
16:17 63.0 °F 24.5 °F 30.01 in Calm     23% 0.00 in 0.0 W/m2 CLR
16:22 63.0 °F 24.5 °F 30.01 in Calm     23% 0.00 in 0.0 W/m2 CLR
16:27 63.0 °F 24.5 °F 30.01 in Calm     23% 0.00 in 0.0 W/m2 CLR
16:32 63.0 °F 24.5 °F 30.01 in Calm     23% 0.00 in 0.0 W/m2 CLR
16:37 63.0 °F 24.5 °F 30.01 in Calm     23% 0.00 in 0.0 W/m2 CLR
16:42 63.0 °F 24.5 °F 30.01 in Calm     23% 0.00 in 0.0 W/m2 CLR
16:47 63.0 °F 24.5 °F 30.01 in Calm     23% 0.00 in 0.0 W/m2 CLR
16:52 63.0 °F 24.5 °F 30.01 in Calm     23% 0.00 in 0.0 W/m2 CLR
16:57 63.0 °F 24.5 °F 30.01 in Calm     23% 0.00 in 0.0 W/m2 CLR
17:02 62.1 °F 27.7 °F 30.02 in Calm     27% 0.00 in 0.0 W/m2 CLR
17:07 62.1 °F 27.7 °F 30.02 in Calm     27% 0.00 in 0.0 W/m2 CLR
17:12 62.1 °F 27.7 °F 30.02 in Calm     27% 0.00 in 0.0 W/m2 CLR
17:17 62.1 °F 27.7 °F 30.02 in Calm     27% 0.00 in 0.0 W/m2 CLR
17:22 62.1 °F 27.7 °F 30.02 in Calm     27% 0.00 in 0.0 W/m2 CLR
17:27 62.1 °F 27.7 °F 30.02 in Calm     27% 0.00 in 0.0 W/m2 CLR
17:32 62.1 °F 27.7 °F 30.02 in Calm     27% 0.00 in 0.0 W/m2 CLR
17:37 62.1 °F 27.7 °F 30.02 in Calm     27% 0.00 in 0.0 W/m2 CLR
17:42 62.1 °F 27.7 °F 30.02 in Calm     27% 0.00 in 0.0 W/m2 CLR
17:47 62.1 °F 27.7 °F 30.02 in Calm     27% 0.00 in 0.0 W/m2 CLR
17:52 62.1 °F 27.7 °F 30.02 in Calm     27% 0.00 in 0.0 W/m2 CLR
17:57 62.1 °F 27.7 °F 30.02 in Calm     27% 0.00 in 0.0 W/m2 CLR
18:02 59.0 °F 28.4 °F 30.03 in Calm     31% 0.00 in 0.0 W/m2 CLR
18:07 59.0 °F 28.4 °F 30.03 in Calm     31% 0.00 in 0.0 W/m2 CLR
18:12 59.0 °F 28.4 °F 30.03 in Calm     31% 0.00 in 0.0 W/m2 CLR
18:17 59.0 °F 28.4 °F 30.03 in Calm     31% 0.00 in 0.0 W/m2 CLR
18:22 59.0 °F 28.4 °F 30.03 in Calm     31% 0.00 in 0.0 W/m2 CLR
18:27 59.0 °F 28.4 °F 30.03 in Calm     31% 0.00 in 0.0 W/m2 CLR
18:32 59.0 °F 28.4 °F 30.03 in Calm     31% 0.00 in 0.0 W/m2 CLR
18:37 59.0 °F 28.4 °F 30.03 in Calm     31% 0.00 in 0.0 W/m2 CLR
18:42 59.0 °F 28.4 °F 30.03 in Calm     31% 0.00 in 0.0 W/m2 CLR
18:47 59.0 °F 28.4 °F 30.03 in Calm     31% 0.00 in 0.0 W/m2 CLR
18:52 59.0 °F 28.4 °F 30.03 in Calm     31% 0.00 in 0.0 W/m2 CLR
18:57 59.0 °F 28.4 °F 30.03 in Calm     31% 0.00 in 0.0 W/m2 CLR
19:02 55.0 °F 33.5 °F 30.06 in Calm     44% 0.00 in 0.0 W/m2 CLR
19:07 55.0 °F 33.5 °F 30.06 in Calm     44% 0.00 in 0.0 W/m2 CLR
19:12 55.0 °F 33.5 °F 30.06 in Calm     44% 0.00 in 0.0 W/m2 CLR
19:17 55.0 °F 33.5 °F 30.06 in Calm     44% 0.00 in 0.0 W/m2 CLR
19:22 55.0 °F 33.5 °F 30.06 in Calm     44% 0.00 in 0.0 W/m2 CLR
19:27 55.0 °F 33.5 °F 30.06 in Calm     44% 0.00 in 0.0 W/m2 CLR
19:32 55.0 °F 33.5 °F 30.06 in Calm     44% 0.00 in 0.0 W/m2 CLR
19:37 55.0 °F 33.5 °F 30.06 in Calm     44% 0.00 in 0.0 W/m2 CLR
19:42 55.0 °F 33.5 °F 30.06 in Calm     44% 0.00 in 0.0 W/m2 CLR
19:47 55.0 °F 33.5 °F 30.06 in Calm     44% 0.00 in 0.0 W/m2 CLR
19:52 55.0 °F 33.5 °F 30.06 in Calm     44% 0.00 in 0.0 W/m2 CLR
19:57 55.0 °F 33.5 °F 30.06 in Calm     44% 0.00 in 0.0 W/m2 CLR
20:02 53.1 °F 34.9 °F 30.09 in Calm     50% 0.00 in 0.0 W/m2 CLR
20:07 53.1 °F 34.9 °F 30.09 in Calm     50% 0.00 in 0.0 W/m2 CLR
20:12 53.1 °F 34.9 °F 30.09 in Calm     50% 0.00 in 0.0 W/m2 CLR
20:17 53.1 °F 34.9 °F 30.09 in Calm     50% 0.00 in 0.0 W/m2 CLR
20:22 53.1 °F 34.9 °F 30.09 in Calm     50% 0.00 in 0.0 W/m2 CLR
20:27 53.1 °F 34.9 °F 30.09 in Calm     50% 0.00 in 0.0 W/m2 CLR
20:32 53.1 °F 34.9 °F 30.09 in Calm     50% 0.00 in 0.0 W/m2 CLR
20:37 53.1 °F 34.9 °F 30.09 in Calm     50% 0.00 in 0.0 W/m2 CLR
20:42 53.1 °F 34.9 °F 30.09 in Calm     50% 0.00 in 0.0 W/m2 CLR
20:47 53.1 °F 34.9 °F 30.09 in Calm     50% 0.00 in 0.0 W/m2 CLR
20:52 53.1 °F 34.9 °F 30.09 in Calm     50% 0.00 in 0.0 W/m2 CLR
20:57 53.1 °F 34.9 °F 30.09 in Calm     50% 0.00 in 0.0 W/m2 CLR
21:02 52.0 °F 35.8 °F 30.11 in Calm     54% 0.00 in 0.0 W/m2 CLR
21:07 52.0 °F 35.8 °F 30.11 in Calm     54% 0.00 in 0.0 W/m2 CLR
21:12 52.0 °F 35.8 °F 30.11 in Calm     54% 0.00 in 0.0 W/m2 CLR
21:17 52.0 °F 35.8 °F 30.11 in Calm     54% 0.00 in 0.0 W/m2 CLR
21:22 52.0 °F 35.8 °F 30.11 in Calm     54% 0.00 in 0.0 W/m2 CLR
21:27 52.0 °F 35.8 °F 30.11 in Calm     54% 0.00 in 0.0 W/m2 CLR
21:32 52.0 °F 35.8 °F 30.11 in Calm     54% 0.00 in 0.0 W/m2 CLR
21:37 52.0 °F 35.8 °F 30.11 in Calm     54% 0.00 in 0.0 W/m2 CLR
21:42 52.0 °F 35.8 °F 30.11 in Calm     54% 0.00 in 0.0 W/m2 CLR
21:47 52.0 °F 35.8 °F 30.11 in Calm     54% 0.00 in 0.0 W/m2 CLR
21:52 52.0 °F 35.8 °F 30.11 in Calm     54% 0.00 in 0.0 W/m2 CLR
21:57 52.0 °F 35.8 °F 30.11 in Calm     54% 0.00 in 0.0 W/m2 CLR
22:02 51.1 °F 35.9 °F 30.13 in Calm     56% 0.00 in 0.0 W/m2 CLR
22:07 51.1 °F 35.9 °F 30.13 in Calm     56% 0.00 in 0.0 W/m2 CLR
22:12 51.1 °F 35.9 °F 30.13 in Calm     56% 0.00 in 0.0 W/m2 CLR
22:17 51.1 °F 35.9 °F 30.13 in Calm     56% 0.00 in 0.0 W/m2 CLR
22:22 51.1 °F 35.9 °F 30.13 in Calm     56% 0.00 in 0.0 W/m2 CLR
22:27 51.1 °F 35.9 °F 30.13 in Calm     56% 0.00 in 0.0 W/m2 CLR
22:32 51.1 °F 35.9 °F 30.13 in Calm     56% 0.00 in 0.0 W/m2 CLR
22:37 51.1 °F 35.9 °F 30.13 in Calm     56% 0.00 in 0.0 W/m2 CLR
22:42 51.1 °F 35.9 °F 30.13 in Calm     56% 0.00 in 0.0 W/m2 CLR
22:47 51.1 °F 35.9 °F 30.13 in Calm     56% 0.00 in 0.0 W/m2 CLR
22:52 51.1 °F 35.9 °F 30.13 in Calm     56% 0.00 in 0.0 W/m2 CLR
22:57 51.1 °F 35.9 °F 30.13 in Calm     56% 0.00 in 0.0 W/m2 CLR
23:02 50.0 °F 36.7 °F 30.13 in Calm     60% 0.00 in 0.0 W/m2 CLR
23:07 50.0 °F 36.7 °F 30.13 in Calm     60% 0.00 in 0.0 W/m2 CLR
23:12 50.0 °F 36.7 °F 30.13 in Calm     60% 0.00 in 0.0 W/m2 CLR
23:17 50.0 °F 36.7 °F 30.13 in Calm     60% 0.00 in 0.0 W/m2 CLR
23:22 50.0 °F 36.7 °F 30.13 in Calm     60% 0.00 in 0.0 W/m2 CLR
23:27 50.0 °F 36.7 °F 30.13 in Calm     60% 0.00 in 0.0 W/m2 CLR
23:32 50.0 °F 36.7 °F 30.13 in Calm     60% 0.00 in 0.0 W/m2 CLR
23:37 50.0 °F 36.7 °F 30.13 in Calm     60% 0.00 in 0.0 W/m2 CLR
23:42 50.0 °F 36.7 °F 30.13 in Calm     60% 0.00 in 0.0 W/m2 CLR
23:47 50.0 °F 36.7 °F 30.13 in Calm     60% 0.00 in 0.0 W/m2 CLR
23:52 50.0 °F 36.7 °F 30.13 in Calm     60% 0.00 in 0.0 W/m2 CLR
23:57 50.0 °F 36.7 °F 30.13 in Calm     60% 0.00 in 0.0 W/m2 CLR
Lake Mary, FL, USA
Compliments of Weather Underground - 1.75 mb